Time;durP1;ratioP1;P1;durP2;ratioP2;P2;SDS_P1;SDS_P2;PMS_P1;PMS_P2;Temp;Humidity;BMP_temperature;BMP_pressure;BME280_temperature;BME280_humidity;BME280_pressure;Samples;Min_cycle;Max_cycle;Signal;HPM_P1;HPM_P2
2022/05/07 00:02:24;;;;;;;5.15;4.45;;;19.90;45.60;;;;;;5001845;28;20242;-86
2022/05/07 00:04:56;;;;;;;5.15;4.53;;;19.90;45.60;;;;;;5019317;28;20201;-86
2022/05/07 00:07:22;;;;;;;5.28;4.78;;;19.90;45.60;;;;;;5034283;28;20225;-87
2022/05/07 00:09:52;;;;;;;5.18;4.68;;;19.90;45.70;;;;;;5035231;28;20203;-86
2022/05/07 00:12:19;;;;;;;6.18;4.90;;;19.80;45.70;;;;;;5017516;28;20658;-86
2022/05/07 00:14:49;;;;;;;5.25;4.50;;;19.90;45.70;;;;;;5001956;28;20181;-86
2022/05/07 00:20:00;;;;;;;4.43;4.03;;;19.80;45.40;;;;;;5025927;28;20182;-86
2022/05/07 00:22:25;;;;;;;4.97;4.45;;;19.80;45.50;;;;;;5051942;28;20196;-86
2022/05/07 00:24:52;;;;;;;5.55;4.95;;;19.80;45.60;;;;;;5068220;28;20157;-84
2022/05/07 00:27:20;;;;;;;6.68;5.40;;;19.80;45.50;;;;;;5052133;28;20191;-86
2022/05/07 00:29:45;;;;;;;5.75;5.15;;;19.80;45.50;;;;;;5052046;28;20519;-86
2022/05/07 00:32:11;;;;;;;5.95;4.60;;;19.80;45.40;;;;;;5035128;28;20186;-87
2022/05/07 00:34:40;;;;;;;4.75;4.22;;;19.80;45.60;;;;;;5051825;28;20185;-86
2022/05/07 00:37:07;;;;;;;5.00;4.47;;;19.80;45.50;;;;;;5051730;28;20616;-87
2022/05/07 00:39:33;;;;;;;6.57;4.50;;;19.80;45.50;;;;;;5051581;28;20165;-87
2022/05/07 00:42:05;;;;;;;4.97;4.47;;;19.80;45.20;;;;;;5051769;28;20165;-86
2022/05/07 00:44:31;;;;;;;4.43;4.03;;;19.80;45.10;;;;;;5034383;28;20193;-86
2022/05/07 00:47:07;;;;;;;5.18;4.68;;;19.80;45.20;;;;;;5054462;28;20188;-86
2022/05/07 00:49:36;;;;;;;4.82;4.10;;;19.70;45.50;;;;;;5023059;28;20196;-86
2022/05/07 00:52:02;;;;;;;6.00;4.38;;;19.80;45.20;;;;;;5022101;28;20187;-86
2022/05/07 00:54:28;;;;;;;5.22;4.60;;;19.70;45.10;;;;;;5055758;28;20217;-85
2022/05/07 00:56:54;;;;;;;4.60;4.13;;;19.70;45.20;;;;;;5038007;28;20252;-86
2022/05/07 00:59:24;;;;;;;4.78;4.28;;;19.80;45.10;;;;;;5038997;28;20216;-86
2022/05/07 01:01:50;;;;;;;5.10;4.22;;;19.80;45.00;;;;;;5072572;28;20158;-86
2022/05/07 01:04:16;;;;;;;4.70;4.25;;;19.80;45.00;;;;;;5071931;28;20161;-86
2022/05/07 01:06:41;;;;;;;4.60;4.18;;;19.80;45.00;;;;;;5038344;28;20284;-86
2022/05/07 01:09:08;;;;;;;4.70;4.20;;;19.80;45.00;;;;;;5039413;28;20174;-86
2022/05/07 01:11:41;;;;;;;4.43;4.03;;;19.70;44.90;;;;;;5038312;28;20158;-86
2022/05/07 01:14:07;;;;;;;6.22;4.20;;;19.80;45.10;;;;;;5055769;28;20176;-87
2022/05/07 01:16:33;;;;;;;4.47;4.07;;;19.80;45.10;;;;;;5055219;28;20648;-86
2022/05/07 01:18:59;;;;;;;4.97;4.28;;;19.80;45.10;;;;;;5038736;28;20203;-86
2022/05/07 01:21:30;;;;;;;5.13;4.00;;;19.70;45.10;;;;;;5054712;28;20162;-86
2022/05/07 01:23:59;;;;;;;4.75;4.25;;;19.70;45.10;;;;;;5004529;28;20177;-86
2022/05/07 01:26:29;;;;;;;6.15;4.20;;;19.70;45.10;;;;;;5005901;28;20233;-86
2022/05/07 01:29:03;;;;;;;4.93;4.10;;;19.70;45.10;;;;;;5038299;28;20180;-86
2022/05/07 01:31:34;;;;;;;5.40;4.63;;;19.70;45.20;;;;;;5022021;28;20187;-86
2022/05/07 01:34:04;;;;;;;4.35;3.95;;;19.70;45.20;;;;;;5021339;28;20197;-86
2022/05/07 01:36:34;;;;;;;5.10;4.60;;;19.70;45.20;;;;;;5021283;28;20180;-86
2022/05/07 01:39:01;;;;;;;4.75;4.07;;;19.70;45.30;;;;;;5021037;28;20208;-86
2022/05/07 01:41:29;;;;;;;5.32;4.72;;;19.70;45.30;;;;;;5021100;28;20223;-86
2022/05/07 01:43:59;;;;;;;5.05;4.55;;;19.70;45.40;;;;;;5021602;28;20231;-86
2022/05/07 01:49:09;;;;;;;5.43;4.20;;;19.70;45.40;;;;;;5073010;28;20640;-86
2022/05/07 01:51:37;;;;;;;4.43;4.03;;;19.60;45.40;;;;;;5020797;28;20185;-86
2022/05/07 01:54:09;;;;;;;5.13;4.05;;;19.70;45.50;;;;;;5037249;28;20182;-86
2022/05/07 01:56:40;;;;;;;5.97;4.50;;;19.70;45.50;;;;;;5036622;28;20181;-86
2022/05/07 01:59:07;;;;;;;5.32;4.78;;;19.60;45.50;;;;;;5053760;28;20193;-86
2022/05/07 02:01:33;;;;;;;5.57;4.28;;;19.60;45.60;;;;;;5036700;28;20193;-86
2022/05/07 02:04:00;;;;;;;4.65;3.90;;;19.60;45.60;;;;;;5071063;28;20157;-86
2022/05/07 02:06:27;;;;;;;4.35;3.78;;;19.50;45.80;;;;;;5054165;28;20200;-86
2022/05/07 02:09:01;;;;;;;4.78;4.25;;;19.60;45.70;;;;;;5051494;28;20177;-86
2022/05/07 02:11:26;;;;;;;5.28;4.50;;;19.60;45.60;;;;;;5068209;28;20162;-86
2022/05/07 02:13:52;;;;;;;4.78;4.20;;;19.60;45.50;;;;;;5051156;28;20559;-86
2022/05/07 02:16:19;;;;;;;4.65;4.15;;;19.60;45.60;;;;;;5034716;28;20169;-86
2022/05/07 02:18:52;;;;;;;5.57;4.00;;;19.60;45.60;;;;;;5000377;28;20744;-86
2022/05/07 02:21:21;;;;;;;4.50;4.10;;;19.60;45.60;;;;;;5017088;28;20189;-86
2022/05/07 02:23:48;;;;;;;4.55;4.15;;;19.60;45.80;;;;;;5016236;28;20257;-86
2022/05/07 02:26:15;;;;;;;4.70;4.20;;;19.60;45.70;;;;;;5033379;28;20213;-86
2022/05/07 02:28:42;;;;;;;4.90;4.40;;;19.60;45.60;;;;;;5016479;28;20220;-87
2022/05/07 02:31:10;;;;;;;4.38;3.97;;;19.50;45.80;;;;;;4983624;28;20186;-86
2022/05/07 02:33:37;;;;;;;4.57;4.18;;;19.60;46.00;;;;;;5016768;28;20196;-87
2022/05/07 02:36:03;;;;;;;5.13;4.63;;;19.50;45.70;;;;;;5034209;28;20170;-86
2022/05/07 02:38:30;;;;;;;4.80;4.30;;;19.60;45.70;;;;;;5050370;28;20187;-86
2022/05/07 02:43:42;;;;;;;5.45;3.97;;;19.50;45.80;;;;;;5044958;28;20155;-86
2022/05/07 02:46:09;;;;;;;4.32;3.92;;;19.60;46.00;;;;;;5016127;28;20214;-86
2022/05/07 02:48:36;;;;;;;4.22;3.80;;;19.50;45.90;;;;;;5067809;28;20146;-87
2022/05/07 02:51:04;;;;;;;4.55;4.15;;;19.60;45.90;;;;;;5051308;28;20150;-86
2022/05/07 02:53:31;;;;;;;5.10;4.35;;;19.50;45.80;;;;;;4983517;28;20175;-86
2022/05/07 02:56:02;;;;;;;4.43;4.03;;;19.50;45.80;;;;;;4999891;28;20177;-86
2022/05/07 02:58:28;;;;;;;4.97;4.25;;;19.50;46.10;;;;;;5015574;28;20184;-86
2022/05/07 03:00:54;;;;;;;4.72;4.20;;;19.50;45.80;;;;;;5033507;28;20268;-86
2022/05/07 03:03:20;;;;;;;4.53;3.90;;;19.50;45.80;;;;;;5050121;28;20158;-86
2022/05/07 03:05:46;;;;;;;4.53;3.90;;;19.50;45.80;;;;;;5033246;28;20174;-86
2022/05/07 03:08:14;;;;;;;5.05;4.22;;;19.50;45.80;;;;;;5053150;28;20270;-86
2022/05/07 03:10:39;;;;;;;5.68;4.40;;;19.50;46.00;;;;;;5052263;28;20248;-86
2022/05/07 03:13:05;;;;;;;4.70;4.13;;;19.50;45.90;;;;;;5070213;28;20149;-86
2022/05/07 03:15:32;;;;;;;5.43;4.13;;;19.50;45.80;;;;;;5036355;28;20165;-86
2022/05/07 03:18:01;;;;;;;6.38;4.35;;;19.50;45.80;;;;;;5036031;28;20169;-86
2022/05/07 03:20:27;;;;;;;4.93;4.18;;;19.40;45.80;;;;;;5087568;28;20214;-86
2022/05/07 03:22:58;;;;;;;4.80;4.25;;;19.50;45.80;;;;;;5052180;28;20177;-86
2022/05/07 03:25:27;;;;;;;4.63;4.07;;;19.50;46.00;;;;;;5019832;28;20185;-86
2022/05/07 03:27:58;;;;;;;4.47;4.05;;;19.50;45.90;;;;;;5018827;28;20228;-86
2022/05/07 03:30:26;;;;;;;5.32;4.55;;;19.50;45.90;;;;;;5018323;28;20215;-86
2022/05/07 03:32:55;;;;;;;5.43;4.38;;;19.50;46.00;;;;;;5035262;28;20191;-86
2022/05/07 03:35:24;;;;;;;4.63;4.10;;;19.50;45.90;;;;;;5018941;28;20188;-86
2022/05/07 03:37:54;;;;;;;4.43;4.03;;;19.50;45.90;;;;;;5019111;28;20562;-86
2022/05/07 03:40:22;;;;;;;4.32;3.90;;;19.50;45.90;;;;;;5018609;28;20181;-86
2022/05/07 03:42:50;;;;;;;4.78;4.07;;;19.50;46.00;;;;;;5035489;28;20247;-87
2022/05/07 03:45:16;;;;;;;4.40;4.00;;;19.50;46.00;;;;;;5035515;28;20211;-86
2022/05/07 03:47:46;;;;;;;4.95;4.45;;;19.50;46.00;;;;;;5052333;28;20197;-86
2022/05/07 03:50:12;;;;;;;4.53;4.10;;;19.40;46.00;;;;;;5067631;28;20161;-86
2022/05/07 03:55:23;;;;;;;5.20;4.38;;;19.40;46.00;;;;;;5056913;28;20154;-86
2022/05/07 03:57:48;;;;;;;4.45;4.05;;;19.40;46.00;;;;;;5051810;28;20692;-86
2022/05/07 04:00:14;;;;;;;4.93;4.25;;;19.40;46.00;;;;;;5052549;28;20174;-85
2022/05/07 04:02:41;;;;;;;4.72;4.22;;;19.40;46.10;;;;;;5051986;28;20240;-86
2022/05/07 04:05:07;;;;;;;4.22;3.83;;;19.40;46.10;;;;;;5068918;28;20157;-87
2022/05/07 04:07:36;;;;;;;4.82;4.30;;;19.40;46.10;;;;;;5043442;28;20297;-86
2022/05/07 04:10:08;;;;;;;4.78;4.28;;;19.40;46.10;;;;;;5017699;28;20176;-86
2022/05/07 04:12:37;;;;;;;4.45;4.05;;;19.40;46.10;;;;;;5018269;28;20551;-86
2022/05/07 04:15:09;;;;;;;4.32;3.83;;;19.40;46.10;;;;;;5001556;28;20378;-86
2022/05/07 04:17:38;;;;;;;4.88;4.38;;;19.40;46.10;;;;;;5018574;28;20181;-86
2022/05/07 04:20:09;;;;;;;4.40;3.90;;;19.40;46.20;;;;;;5033551;28;20181;-86
2022/05/07 04:22:39;;;;;;;4.20;3.75;;;19.40;46.20;;;;;;5019064;28;20648;-86
2022/05/07 04:25:09;;;;;;;5.03;4.35;;;19.40;46.20;;;;;;5018431;28;20212;-86
2022/05/07 04:27:40;;;;;;;4.75;4.25;;;19.40;46.20;;;;;;5034725;28;20208;-86
2022/05/07 04:30:09;;;;;;;4.53;3.65;;;19.40;46.20;;;;;;5034623;28;20177;-86
2022/05/07 04:32:37;;;;;;;4.90;4.35;;;19.40;46.20;;;;;;5017797;28;20181;-86
2022/05/07 04:35:06;;;;;;;4.82;4.32;;;19.40;46.20;;;;;;5034050;28;20192;-86
2022/05/07 04:37:43;;;;;;;4.50;3.90;;;19.40;46.30;;;;;;5018258;28;20539;-86
2022/05/07 04:40:15;;;;;;;4.70;4.20;;;19.50;46.20;;;;;;5034445;28;20242;-86
2022/05/07 04:42:43;;;;;;;4.50;4.10;;;19.40;46.30;;;;;;5018528;28;20253;-86
2022/05/07 04:45:08;;;;;;;5.00;4.10;;;19.40;46.30;;;;;;5035433;28;20220;-86
2022/05/07 04:47:44;;;;;;;4.47;4.07;;;19.30;46.20;;;;;;5068578;28;20197;-86
2022/05/07 04:50:16;;;;;;;4.57;4.05;;;19.40;46.30;;;;;;5034081;28;20220;-86
2022/05/07 04:52:49;;;;;;;4.78;4.30;;;19.40;46.30;;;;;;5017853;28;20201;-86
2022/05/07 04:55:16;;;;;;;4.55;4.03;;;19.30;46.30;;;;;;5033890;28;20181;-86
2022/05/07 04:57:48;;;;;;;4.68;4.13;;;19.30;46.30;;;;;;5017813;28;20185;-86
2022/05/07 05:00:16;;;;;;;4.30;3.90;;;19.40;46.40;;;;;;5051144;28;20185;-86
2022/05/07 05:02:43;;;;;;;4.60;4.03;;;19.40;46.40;;;;;;5020122;28;20186;-87
2022/05/07 05:05:14;;;;;;;4.80;4.30;;;19.40;46.40;;;;;;5056318;28;20165;-87
2022/05/07 05:07:45;;;;;;;4.80;4.20;;;19.40;46.50;;;;;;5036847;28;20232;-87
2022/05/07 05:10:18;;;;;;;5.13;4.20;;;19.40;46.50;;;;;;5046937;28;20196;-87
2022/05/07 05:12:48;;;;;;;4.97;3.92;;;19.30;46.40;;;;;;5023608;28;20197;-87
2022/05/07 05:15:17;;;;;;;5.13;4.40;;;19.30;46.40;;;;;;5049023;28;20230;-87
2022/05/07 05:17:48;;;;;;;4.32;3.90;;;19.30;46.40;;;;;;5031820;28;20158;-87
2022/05/07 05:20:18;;;;;;;4.22;3.83;;;19.30;46.40;;;;;;5030247;28;20210;-87
2022/05/07 05:22:47;;;;;;;5.05;4.05;;;19.40;46.60;;;;;;5013375;28;20194;-86
2022/05/07 05:25:20;;;;;;;4.40;4.00;;;19.30;46.50;;;;;;5031226;28;20543;-88
2022/05/07 05:27:49;;;;;;;4.20;3.80;;;19.30;46.60;;;;;;5031533;28;20759;-88
2022/05/07 05:30:17;;;;;;;4.70;4.20;;;19.30;46.60;;;;;;5030778;28;20193;-87
2022/05/07 05:32:43;;;;;;;4.18;3.75;;;19.30;46.60;;;;;;5050485;28;20161;-87
2022/05/07 05:35:18;;;;;;;4.55;3.92;;;19.30;46.60;;;;;;5050506;28;20640;-88
2022/05/07 05:37:47;;;;;;;4.47;3.90;;;19.30;46.60;;;;;;5012922;28;20177;-89
2022/05/07 05:40:17;;;;;;;4.28;3.88;;;19.30;46.60;;;;;;5015523;28;20178;-87
2022/05/07 05:42:47;;;;;;;4.35;3.95;;;19.30;46.60;;;;;;4999831;28;20188;-87
2022/05/07 05:45:19;;;;;;;4.50;4.10;;;19.30;46.60;;;;;;5000488;28;20192;-86
2022/05/07 05:47:47;;;;;;;4.60;4.20;;;19.30;46.60;;;;;;5015825;28;20213;-86
2022/05/07 05:50:16;;;;;;;4.70;4.20;;;19.30;46.60;;;;;;5026812;28;20254;-87
2022/05/07 05:52:44;;;;;;;4.90;3.97;;;19.40;46.60;;;;;;5048602;28;20169;-87
2022/05/07 05:55:12;;;;;;;5.43;4.40;;;19.30;46.60;;;;;;5028196;28;20209;-86
2022/05/07 05:57:44;;;;;;;4.38;3.97;;;19.30;46.70;;;;;;4995397;28;20581;-86
2022/05/07 06:00:12;;;;;;;4.43;4.03;;;19.30;46.70;;;;;;5011624;28;20178;-86
2022/05/07 06:02:43;;;;;;;6.10;4.30;;;19.30;46.70;;;;;;5012266;28;20240;-87
2022/05/07 06:05:16;;;;;;;5.03;4.07;;;19.30;46.70;;;;;;5025069;28;20182;-87
2022/05/07 06:07:43;;;;;;;4.22;3.83;;;19.30;46.70;;;;;;5011956;28;20226;-86
2022/05/07 06:10:13;;;;;;;4.80;4.30;;;19.30;46.70;;;;;;5022924;28;20182;-87
2022/05/07 06:12:43;;;;;;;5.07;4.20;;;19.30;46.70;;;;;;5026221;28;20273;-88
2022/05/07 06:15:14;;;;;;;4.00;3.55;;;19.30;46.80;;;;;;5009869;28;20186;-86
2022/05/07 06:17:42;;;;;;;4.55;3.90;;;19.30;46.80;;;;;;4993528;28;20668;-86
2022/05/07 06:20:13;;;;;;;4.35;3.95;;;19.30;46.90;;;;;;5022010;28;20189;-86
2022/05/07 06:22:40;;;;;;;4.72;4.18;;;19.30;47.00;;;;;;5019096;28;20186;-87
2022/05/07 06:27:50;;;;;;;4.70;4.20;;;19.30;46.90;;;;;;5030768;28;20205;-88
2022/05/07 06:30:17;;;;;;;4.97;4.47;;;19.30;46.90;;;;;;5010445;28;20185;-87
2022/05/07 06:32:44;;;;;;;4.88;4.03;;;19.30;47.00;;;;;;4996797;28;20264;-86
2022/05/07 06:35:11;;;;;;;4.40;3.95;;;19.30;47.00;;;;;;5012909;28;20182;-87
2022/05/07 06:37:39;;;;;;;4.70;4.03;;;19.30;47.00;;;;;;5024855;28;20276;-87
2022/05/07 06:40:10;;;;;;;4.13;3.55;;;19.30;47.00;;;;;;5017548;28;20248;-88
2022/05/07 06:42:41;;;;;;;4.57;3.90;;;19.30;47.00;;;;;;5017393;28;20186;-86
2022/05/07 06:45:08;;;;;;;5.07;4.22;;;19.30;47.00;;;;;;5011649;28;20184;-88
2022/05/07 06:47:34;;;;;;;5.43;3.90;;;19.30;47.00;;;;;;5037169;28;20286;-87
2022/05/07 06:50:01;;;;;;;5.40;4.20;;;19.30;47.00;;;;;;5059499;28;20150;-86
2022/05/07 06:52:27;;;;;;;4.43;4.03;;;19.30;47.00;;;;;;5043010;28;20536;-86
2022/05/07 06:54:58;;;;;;;5.13;4.43;;;19.40;47.10;;;;;;5044821;28;20158;-87
2022/05/07 06:57:24;;;;;;;4.85;4.15;;;19.30;47.00;;;;;;5011807;28;20216;-86
2022/05/07 06:59:50;;;;;;;4.50;3.97;;;19.30;47.00;;;;;;5046454;28;20165;-85
2022/05/07 07:02:16;;;;;;;4.22;3.75;;;19.30;47.10;;;;;;5045501;28;20170;-86
2022/05/07 07:04:42;;;;;;;4.53;3.53;;;19.30;47.30;;;;;;5045617;28;20161;-90
2022/05/07 07:07:08;;;;;;;4.82;4.15;;;19.30;48.10;;;;;;5045568;28;20228;-86
2022/05/07 07:09:34;;;;;;;4.43;3.70;;;19.30;48.20;;;;;;5045663;28;20218;-86
2022/05/07 07:12:00;;;;;;;4.18;3.55;;;19.40;48.40;;;;;;5080932;28;20149;-86
2022/05/07 07:14:26;;;;;;;4.25;3.85;;;19.40;48.20;;;;;;5064424;28;20162;-86
2022/05/07 07:16:52;;;;;;;4.95;4.05;;;19.40;48.00;;;;;;5064790;28;20215;-86
2022/05/07 07:19:18;;;;;;;5.47;4.20;;;19.40;48.10;;;;;;5062746;28;20162;-85
2022/05/07 07:21:49;;;;;;;4.43;4.00;;;19.30;48.70;;;;;;5061962;28;20241;-87
2022/05/07 07:24:18;;;;;;;4.32;3.92;;;19.40;48.80;;;;;;4994988;28;20177;-87
2022/05/07 07:26:44;;;;;;;4.18;3.78;;;19.30;49.00;;;;;;5042871;28;20748;-87
2022/05/07 07:29:09;;;;;;;4.13;3.65;;;19.40;49.40;;;;;;5058534;28;20189;-87
2022/05/07 07:31:39;;;;;;;4.88;3.97;;;19.40;49.90;;;;;;5041829;28;20165;-86
2022/05/07 07:34:08;;;;;;;4.88;4.22;;;19.40;50.50;;;;;;5010571;28;20177;-86
2022/05/07 07:36:34;;;;;;;5.22;3.97;;;19.50;50.10;;;;;;5041472;28;20166;-87
2022/05/07 07:39:04;;;;;;;5.40;4.00;;;19.40;50.20;;;;;;5040859;28;20174;-86
2022/05/07 07:41:32;;;;;;;4.20;3.63;;;19.40;50.30;;;;;;5044075;28;20189;-88
2022/05/07 07:43:58;;;;;;;7.88;3.85;;;19.40;50.40;;;;;;5044376;28;20161;-87
2022/05/07 07:49:09;;;;;;;5.55;3.80;;;19.40;50.80;;;;;;5060133;28;20154;-86
2022/05/07 07:51:35;;;;;;;3.65;3.30;;;19.50;50.70;;;;;;5008220;28;20184;-88
2022/05/07 07:54:06;;;;;;;5.40;4.03;;;19.50;51.00;;;;;;5041238;28;20161;-87
2022/05/07 07:56:36;;;;;;;6.28;3.42;;;19.50;51.00;;;;;;4992480;28;20336;-86
2022/05/07 07:59:02;;;;;;;4.43;3.63;;;19.50;51.50;;;;;;5007238;28;20644;-86
2022/05/07 08:01:28;;;;;;;4.10;3.70;;;19.50;51.80;;;;;;5057196;28;20184;-87
2022/05/07 08:03:57;;;;;;;4.03;3.60;;;19.50;51.50;;;;;;5057708;28;20229;-86
2022/05/07 08:06:25;;;;;;;4.95;3.83;;;19.50;51.90;;;;;;4991960;28;20213;-86
2022/05/07 08:11:41;;;;;;;5.18;3.72;;;19.50;52.30;;;;;;5061121;28;20616;-86
2022/05/07 08:14:14;;;;;;;4.03;3.20;;;19.50;52.20;;;;;;5042493;28;20170;-85
2022/05/07 08:16:46;;;;;;;5.75;3.85;;;19.50;52.60;;;;;;5008280;28;20193;-86
2022/05/07 08:19:17;;;;;;;4.25;3.45;;;19.50;53.00;;;;;;5007981;28;20255;-86
2022/05/07 08:21:43;;;;;;;6.10;3.85;;;19.50;53.30;;;;;;4992251;28;20181;-87
2022/05/07 08:24:15;;;;;;;3.70;3.33;;;19.50;53.00;;;;;;5060541;28;20158;-85
2022/05/07 08:26:41;;;;;;;3.90;3.22;;;19.60;53.40;;;;;;5011521;28;20262;-87
2022/05/07 08:29:11;;;;;;;5.57;3.65;;;19.50;53.30;;;;;;5077370;28;20187;-86
2022/05/07 08:31:37;;;;;;;3.80;3.40;;;19.50;53.40;;;;;;5001238;28;20181;-85
2022/05/07 08:34:10;;;;;;;3.70;3.28;;;19.50;53.50;;;;;;5050246;28;20165;-88
2022/05/07 08:36:36;;;;;;;3.95;3.58;;;19.50;53.60;;;;;;4997513;28;20196;-87
2022/05/07 08:39:02;;;;;;;5.00;3.53;;;19.40;53.80;;;;;;5046589;28;20157;-86
2022/05/07 08:41:28;;;;;;;6.13;3.60;;;19.50;53.80;;;;;;5066132;28;20616;-85
2022/05/07 08:44:06;;;;;;;4.25;3.47;;;19.50;54.10;;;;;;5048806;28;20180;-87
2022/05/07 08:46:35;;;;;;;4.40;3.20;;;19.50;54.40;;;;;;5002513;28;20208;-89
2022/05/07 08:49:01;;;;;;;4.13;3.60;;;19.50;54.40;;;;;;5065011;28;20169;-86
2022/05/07 08:51:27;;;;;;;4.13;3.50;;;19.60;54.60;;;;;;5048632;28;20201;-86
2022/05/07 08:54:02;;;;;;;5.22;3.67;;;19.50;54.60;;;;;;5063581;28;20173;-85
2022/05/07 08:56:28;;;;;;;4.22;3.45;;;19.50;54.60;;;;;;4997905;28;20204;-87
2022/05/07 08:59:03;;;;;;;3.88;3.47;;;19.50;55.00;;;;;;5062685;28;20168;-85
2022/05/07 09:01:33;;;;;;;3.85;3.42;;;19.50;55.00;;;;;;4993596;28;20196;-85
2022/05/07 09:04:11;;;;;;;4.90;3.70;;;19.50;55.10;;;;;;4994707;28;20505;-83
2022/05/07 09:06:36;;;;;;;4.43;3.60;;;19.50;55.00;;;;;;4996635;28;20196;-85
2022/05/07 09:09:11;;;;;;;4.95;3.42;;;19.40;55.30;;;;;;5048621;28;20280;-86
2022/05/07 09:11:43;;;;;;;6.65;3.60;;;19.50;55.60;;;;;;4982303;28;20185;-87
2022/05/07 09:14:09;;;;;;;4.85;3.42;;;19.50;55.60;;;;;;4998371;28;20184;-85
2022/05/07 09:16:39;;;;;;;5.15;3.28;;;19.40;55.50;;;;;;5051370;28;20177;-85
2022/05/07 09:19:27;;;;;;;5.57;2.88;;;19.50;55.80;;;;;;5047392;28;20172;-85
2022/05/07 09:22:09;;;;;;;5.07;3.20;;;19.50;55.80;;;;;;5069216;28;20158;-85
2022/05/07 09:24:35;;;;;;;4.20;3.05;;;19.60;55.50;;;;;;5049374;28;20236;-86
2022/05/07 09:27:15;;;;;;;3.50;3.13;;;19.50;55.30;;;;;;5051803;28;20285;-87
2022/05/07 09:29:47;;;;;;;5.28;3.35;;;19.60;55.20;;;;;;5017841;28;20181;-88
2022/05/07 09:32:14;;;;;;;5.75;2.90;;;19.60;55.30;;;;;;5023762;28;20187;-88
2022/05/07 09:37:39;;;;;;;4.20;3.15;;;19.50;55.30;;;;;;5007839;28;20152;-88
2022/05/07 09:40:10;;;;;;;7.63;2.55;;;19.60;54.80;;;;;;4941931;28;20194;-86
2022/05/07 09:42:36;;;;;;;3.63;2.35;;;19.60;54.50;;;;;;4957831;28;20179;-87
2022/05/07 09:45:05;;;;;;;7.47;2.97;;;19.60;54.40;;;;;;5006525;28;20317;-87
2022/05/07 09:47:34;;;;;;;5.53;2.80;;;19.60;55.50;;;;;;5004451;28;20246;-86
2022/05/07 09:58:42;;;;;;;5.05;2.72;;;19.60;54.30;;;;;;5064267;28;20179;-89
2022/05/07 10:01:24;;;;;;;3.72;2.50;;;19.70;54.10;;;;;;5012355;28;20181;-89
2022/05/07 10:04:27;;;;;;;6.15;3.00;;;19.60;54.10;;;;;;5012800;28;20208;-88
2022/05/07 10:06:58;;;;;;;5.78;2.75;;;19.70;54.10;;;;;;5064820;28;20224;-87
2022/05/07 10:09:41;;;;;;;8.07;2.63;;;19.60;53.90;;;;;;5045059;28;20639;-86
2022/05/07 10:12:21;;;;;;;8.35;2.38;;;19.60;54.10;;;;;;5062447;28;20158;-87
2022/05/07 10:14:51;;;;;;;6.50;2.70;;;19.60;54.10;;;;;;4997819;28;20212;-88
2022/05/07 10:17:23;;;;;;;4.30;2.60;;;19.60;53.90;;;;;;5060892;28;20157;-87
2022/05/07 10:20:00;;;;;;;4.95;2.80;;;19.60;54.10;;;;;;5078998;28;20173;-86
2022/05/07 10:22:33;;;;;;;6.22;2.83;;;19.60;53.90;;;;;;5000571;28;20189;-87
2022/05/07 10:25:10;;;;;;;4.43;2.38;;;19.60;53.90;;;;;;5031704;28;20181;-86
2022/05/07 10:28:16;;;;;;;6.47;2.33;;;19.60;53.70;;;;;;5050020;28;20196;-87
2022/05/07 10:30:52;;;;;;;5.05;2.33;;;19.60;53.30;;;;;;4998131;28;20183;-87
2022/05/07 10:34:15;;;;;;;11.50;2.65;;;19.60;53.50;;;;;;4989072;28;20185;-86
2022/05/07 10:36:51;;;;;;;8.35;2.60;;;19.60;53.60;;;;;;5000332;28;20175;-89
2022/05/07 10:39:41;;;;;;;4.18;1.90;;;19.60;53.40;;;;;;4967498;28;20252;-88
2022/05/07 10:42:22;;;;;;;6.57;2.60;;;19.60;53.40;;;;;;4956783;28;20184;-86
2022/05/07 10:44:51;;;;;;;4.07;2.20;;;19.60;53.30;;;;;;4931125;29;20177;-87
2022/05/07 10:47:18;;;;;;;5.05;2.85;;;19.50;52.60;;;;;;4960846;28;20205;-86
2022/05/07 10:50:09;;;;;;;7.85;2.47;;;19.60;53.50;;;;;;4960632;29;20327;-87
2022/05/07 10:52:40;;;;;;;9.40;2.20;;;19.60;52.60;;;;;;4959960;28;20528;-87
2022/05/07 10:55:37;;;;;;;4.03;2.30;;;19.60;53.00;;;;;;4947649;29;20196;-87
2022/05/07 10:58:30;;;;;;;5.35;2.13;;;19.50;52.70;;;;;;4909981;29;20187;-88
2022/05/07 11:01:00;;;;;;;8.55;2.33;;;19.50;52.70;;;;;;4900982;29;20306;-87
2022/05/07 11:03:47;;;;;;;;;;;;;;;;;;;;;
2022/05/07 11:06:48;;;;;;;;;;;;;;;;;;;;;
2022/05/07 11:09:24;;;;;;;3.75;1.85;;;19.50;53.00;;;;;;4884231;29;20192;-88
2022/05/07 11:12:27;;;;;;;;;;;;;;;;;;;;;
2022/05/07 11:15:44;;;;;;;;;;;;;;;;;;;;;
2022/05/07 11:22:21;;;;;;;;;;;;;;;;;;;;;
2022/05/07 11:25:08;;;;;;;6.80;2.00;;;19.60;53.00;;;;;;4772878;30;20227;-87
2022/05/07 11:28:01;;;;;;;;;;;;;;;;;;;;;
2022/05/07 11:30:28;;;;;;;4.60;2.00;;;19.50;52.60;;;;;;4744539;30;20255;-89
2022/05/07 11:33:15;;;;;;;;;;;;;;;;;;;;;
2022/05/07 11:36:11;;;;;;;5.15;1.60;;;19.60;52.20;;;;;;4821321;29;20268;-88
2022/05/07 11:38:39;;;;;;;6.72;2.10;;;19.50;51.50;;;;;;4816453;29;20196;-89
2022/05/07 11:41:15;;;;;;;4.15;1.85;;;19.50;51.60;;;;;;4814921;29;20180;-85
2022/05/07 11:46:48;;;;;;;5.35;2.33;;;19.50;52.20;;;;;;4820346;29;20241;-87
2022/05/07 11:50:05;;;;;;;2.97;1.85;;;19.50;52.10;;;;;;4816497;29;20268;-86
2022/05/07 11:52:26;;;;;;;3.63;1.52;;;19.50;51.80;;;;;;4852369;29;20184;-86
2022/05/07 11:54:52;;;;;;;4.45;1.90;;;19.50;51.60;;;;;;4847971;29;20189;-86
2022/05/07 11:57:29;;;;;;;5.93;2.03;;;19.50;52.10;;;;;;4850595;29;20188;-86
2022/05/07 11:59:59;;;;;;;6.88;1.70;;;19.50;51.70;;;;;;4881682;29;20207;-86
2022/05/07 12:02:25;;;;;;;4.78;1.75;;;19.40;51.50;;;;;;4864305;29;20196;-86
2022/05/07 12:04:58;;;;;;;3.70;1.90;;;19.50;51.00;;;;;;4922636;28;20280;-86
2022/05/07 12:07:23;;;;;;;4.13;1.48;;;19.40;51.20;;;;;;4975958;28;20287;-88
2022/05/07 12:09:49;;;;;;;5.15;1.83;;;19.50;51.00;;;;;;4942528;28;20172;-86
2022/05/07 12:12:15;;;;;;;5.65;1.67;;;19.50;51.00;;;;;;4959181;28;20161;-86
2022/05/07 12:14:41;;;;;;;5.65;1.40;;;19.50;50.80;;;;;;4973821;28;20619;-86
2022/05/07 12:19:52;;;;;;;4.03;1.58;;;19.50;50.50;;;;;;4967038;28;20623;-87
2022/05/07 12:30:25;;;;;;;3.20;1.50;;;19.50;50.60;;;;;;5053684;28;20158;-88
2022/05/07 12:32:54;;;;;;;4.43;1.40;;;19.50;49.90;;;;;;5038679;28;20609;-89
2022/05/07 12:35:20;;;;;;;3.72;1.73;;;19.50;50.10;;;;;;5038579;28;20593;-86
2022/05/07 12:37:50;;;;;;;3.75;1.63;;;19.50;50.10;;;;;;5054378;28;20162;-88
2022/05/07 12:40:23;;;;;;;2.72;1.75;;;19.50;50.10;;;;;;5004709;28;20598;-87
2022/05/07 12:42:49;;;;;;;6.13;1.60;;;19.50;49.50;;;;;;5007701;28;20228;-88
2022/05/07 12:45:15;;;;;;;4.10;1.60;;;19.50;49.40;;;;;;5040766;28;20162;-85
2022/05/07 12:47:41;;;;;;;5.15;1.77;;;19.50;49.80;;;;;;5024535;28;20216;-87
2022/05/07 12:50:07;;;;;;;3.08;1.30;;;19.50;50.20;;;;;;5040660;28;20601;-87
2022/05/07 12:52:33;;;;;;;5.03;1.70;;;19.50;49.80;;;;;;5026026;28;20162;-88
2022/05/07 12:54:59;;;;;;;3.63;1.50;;;19.50;49.80;;;;;;5041396;28;20164;-86
2022/05/07 12:57:25;;;;;;;2.92;1.38;;;19.50;49.80;;;;;;5040915;28;20162;-86
2022/05/07 12:59:52;;;;;;;7.10;2.40;;;19.50;48.60;;;;;;5040400;28;20166;-84
2022/05/07 13:02:30;;;;;;;3.25;1.50;;;19.60;49.80;;;;;;5040070;28;20652;-87
2022/05/07 13:04:56;;;;;;;2.97;1.45;;;19.50;49.00;;;;;;4996952;28;20191;-86
2022/05/07 13:07:21;;;;;;;2.70;1.88;;;19.60;49.70;;;;;;4980204;28;20216;-85
2022/05/07 13:09:47;;;;;;;5.55;1.60;;;19.50;50.10;;;;;;4981571;28;20226;-87
2022/05/07 13:12:13;;;;;;;4.60;1.70;;;19.50;50.10;;;;;;4966087;28;20169;-87
2022/05/07 13:14:40;;;;;;;7.07;1.65;;;19.50;49.70;;;;;;4981971;28;20180;-87
2022/05/07 13:17:06;;;;;;;4.15;1.52;;;19.50;49.40;;;;;;4965627;28;20263;-88
2022/05/07 13:19:31;;;;;;;4.15;1.67;;;19.50;48.60;;;;;;4970178;28;20219;-87
2022/05/07 13:22:01;;;;;;;3.03;1.35;;;19.50;49.10;;;;;;4985786;28;20688;-87
2022/05/07 13:24:29;;;;;;;3.20;1.58;;;19.60;49.10;;;;;;4970334;28;20186;-87
2022/05/07 13:26:56;;;;;;;4.85;1.48;;;19.50;49.40;;;;;;4992927;28;20698;-87
2022/05/07 13:29:28;;;;;;;3.17;1.50;;;19.60;49.30;;;;;;5004465;28;20603;-87
2022/05/07 13:32:14;;;;;;;3.55;1.60;;;19.50;48.80;;;;;;5004279;28;20155;-87
2022/05/07 13:34:47;;;;;;;3.60;1.30;;;19.60;48.50;;;;;;5000801;28;20637;-87
2022/05/07 13:37:15;;;;;;;2.70;1.30;;;19.60;48.60;;;;;;5029386;28;20173;-87
2022/05/07 13:39:47;;;;;;;2.13;1.42;;;19.50;48.50;;;;;;5079859;28;20169;-87
2022/05/07 13:42:16;;;;;;;2.50;1.48;;;19.50;48.30;;;;;;5030852;28;20169;-87
2022/05/07 13:44:43;;;;;;;2.67;1.40;;;19.60;48.60;;;;;;5062741;28;20158;-87
2022/05/07 13:47:08;;;;;;;3.25;1.63;;;19.50;48.10;;;;;;5047851;28;20184;-88
2022/05/07 13:49:36;;;;;;;6.35;1.55;;;19.50;48.10;;;;;;5046706;28;20237;-87
2022/05/07 13:52:04;;;;;;;2.72;1.38;;;19.50;48.20;;;;;;5044300;28;20657;-87
2022/05/07 13:54:30;;;;;;;4.68;1.60;;;19.50;48.70;;;;;;5046614;28;20225;-87
2022/05/07 13:56:55;;;;;;;3.97;1.33;;;19.50;48.20;;;;;;5031406;28;20200;-87
2022/05/07 13:59:22;;;;;;;3.38;1.30;;;19.50;47.70;;;;;;5046357;28;20161;-87
2022/05/07 14:01:48;;;;;;;3.65;1.40;;;19.50;47.50;;;;;;5048019;28;20621;-86